sensor_id;sensor_type;location;lat;lon;timestamp;P1;durP1;ratioP1;P2;durP2;ratioP2
9160;SDS011;4615;51.340;8.288;2024-03-17T00:00:21;8.52;;;6.07;;
9160;SDS011;4615;51.340;8.288;2024-03-17T00:02:49;7.67;;;6.30;;
9160;SDS011;4615;51.340;8.288;2024-03-17T00:05:17;8.60;;;6.57;;
9160;SDS011;4615;51.340;8.288;2024-03-17T00:07:44;8.05;;;6.43;;
9160;SDS011;4615;51.340;8.288;2024-03-17T00:10:10;7.55;;;6.40;;
9160;SDS011;4615;51.340;8.288;2024-03-17T00:12:36;8.27;;;6.57;;
9160;SDS011;4615;51.340;8.288;2024-03-17T00:15:03;7.90;;;6.28;;
9160;SDS011;4615;51.340;8.288;2024-03-17T00:17:29;8.82;;;6.85;;
9160;SDS011;4615;51.340;8.288;2024-03-17T00:19:55;7.65;;;6.65;;
9160;SDS011;4615;51.340;8.288;2024-03-17T00:22:23;8.70;;;6.60;;
9160;SDS011;4615;51.340;8.288;2024-03-17T00:24:49;7.75;;;6.60;;
9160;SDS011;4615;51.340;8.288;2024-03-17T00:27:16;9.40;;;7.03;;
9160;SDS011;4615;51.340;8.288;2024-03-17T00:29:44;8.70;;;6.72;;
9160;SDS011;4615;51.340;8.288;2024-03-17T00:32:09;8.32;;;7.15;;
9160;SDS011;4615;51.340;8.288;2024-03-17T00:34:36;8.45;;;6.78;;
9160;SDS011;4615;51.340;8.288;2024-03-17T00:37:03;7.30;;;6.60;;
9160;SDS011;4615;51.340;8.288;2024-03-17T00:39:32;7.85;;;6.82;;
9160;SDS011;4615;51.340;8.288;2024-03-17T00:41:57;8.60;;;6.72;;
9160;SDS011;4615;51.340;8.288;2024-03-17T00:44:24;9.30;;;7.15;;
9160;SDS011;4615;51.340;8.288;2024-03-17T00:46:49;8.65;;;7.13;;
9160;SDS011;4615;51.340;8.288;2024-03-17T00:49:16;9.20;;;7.38;;
9160;SDS011;4615;51.340;8.288;2024-03-17T00:51:41;9.27;;;7.40;;
9160;SDS011;4615;51.340;8.288;2024-03-17T00:54:07;8.93;;;7.63;;
9160;SDS011;4615;51.340;8.288;2024-03-17T00:56:34;8.73;;;7.30;;
9160;SDS011;4615;51.340;8.288;2024-03-17T00:59:00;10.07;;;7.22;;
9160;SDS011;4615;51.340;8.288;2024-03-17T01:01:26;8.73;;;7.53;;
9160;SDS011;4615;51.340;8.288;2024-03-17T01:03:52;8.75;;;7.20;;
9160;SDS011;4615;51.340;8.288;2024-03-17T01:06:18;8.17;;;6.90;;
9160;SDS011;4615;51.340;8.288;2024-03-17T01:08:44;8.30;;;6.70;;
9160;SDS011;4615;51.340;8.288;2024-03-17T01:11:13;7.73;;;6.50;;
9160;SDS011;4615;51.340;8.288;2024-03-17T01:13:41;8.02;;;6.53;;
9160;SDS011;4615;51.340;8.288;2024-03-17T01:16:08;8.27;;;6.97;;
9160;SDS011;4615;51.340;8.288;2024-03-17T01:18:34;8.70;;;6.65;;
9160;SDS011;4615;51.340;8.288;2024-03-17T01:21:02;7.32;;;6.53;;
9160;SDS011;4615;51.340;8.288;2024-03-17T01:23:28;8.00;;;7.20;;
9160;SDS011;4615;51.340;8.288;2024-03-17T01:25:54;8.00;;;6.80;;
9160;SDS011;4615;51.340;8.288;2024-03-17T01:28:20;7.43;;;6.63;;
9160;SDS011;4615;51.340;8.288;2024-03-17T01:30:47;7.27;;;6.23;;
9160;SDS011;4615;51.340;8.288;2024-03-17T01:33:13;10.40;;;7.15;;
9160;SDS011;4615;51.340;8.288;2024-03-17T01:35:39;8.40;;;6.73;;
9160;SDS011;4615;51.340;8.288;2024-03-17T01:38:05;8.75;;;6.95;;
9160;SDS011;4615;51.340;8.288;2024-03-17T01:40:31;7.90;;;7.03;;
9160;SDS011;4615;51.340;8.288;2024-03-17T01:42:57;7.78;;;6.97;;
9160;SDS011;4615;51.340;8.288;2024-03-17T01:45:26;7.93;;;7.13;;
9160;SDS011;4615;51.340;8.288;2024-03-17T01:47:54;8.60;;;6.78;;
9160;SDS011;4615;51.340;8.288;2024-03-17T01:50:23;8.83;;;6.70;;
9160;SDS011;4615;51.340;8.288;2024-03-17T01:52:51;7.88;;;7.00;;
9160;SDS011;4615;51.340;8.288;2024-03-17T01:55:17;7.57;;;6.78;;
9160;SDS011;4615;51.340;8.288;2024-03-17T01:57:43;7.72;;;6.80;;
9160;SDS011;4615;51.340;8.288;2024-03-17T02:00:09;8.35;;;7.40;;
9160;SDS011;4615;51.340;8.288;2024-03-17T02:02:37;9.77;;;7.70;;
9160;SDS011;4615;51.340;8.288;2024-03-17T02:05:04;10.73;;;7.47;;
9160;SDS011;4615;51.340;8.288;2024-03-17T02:07:31;9.40;;;7.65;;
9160;SDS011;4615;51.340;8.288;2024-03-17T02:09:56;9.17;;;7.90;;
9160;SDS011;4615;51.340;8.288;2024-03-17T02:12:23;9.20;;;7.53;;
9160;SDS011;4615;51.340;8.288;2024-03-17T02:14:48;7.90;;;7.10;;
9160;SDS011;4615;51.340;8.288;2024-03-17T02:17:15;7.85;;;7.03;;
9160;SDS011;4615;51.340;8.288;2024-03-17T02:19:40;8.25;;;7.45;;
9160;SDS011;4615;51.340;8.288;2024-03-17T02:22:11;8.35;;;7.20;;
9160;SDS011;4615;51.340;8.288;2024-03-17T02:24:37;8.48;;;6.85;;
9160;SDS011;4615;51.340;8.288;2024-03-17T02:27:03;10.68;;;8.10;;
9160;SDS011;4615;51.340;8.288;2024-03-17T02:29:29;8.48;;;7.57;;
9160;SDS011;4615;51.340;8.288;2024-03-17T02:31:55;9.90;;;8.20;;
9160;SDS011;4615;51.340;8.288;2024-03-17T02:34:21;10.33;;;8.23;;
9160;SDS011;4615;51.340;8.288;2024-03-17T02:36:47;9.88;;;7.68;;
9160;SDS011;4615;51.340;8.288;2024-03-17T02:39:14;8.93;;;7.75;;
9160;SDS011;4615;51.340;8.288;2024-03-17T02:41:58;9.20;;;7.57;;
9160;SDS011;4615;51.340;8.288;2024-03-17T02:44:24;8.88;;;7.47;;
9160;SDS011;4615;51.340;8.288;2024-03-17T02:46:51;9.45;;;8.27;;
9160;SDS011;4615;51.340;8.288;2024-03-17T02:49:17;9.23;;;8.18;;
9160;SDS011;4615;51.340;8.288;2024-03-17T02:51:44;10.95;;;8.20;;
9160;SDS011;4615;51.340;8.288;2024-03-17T02:54:10;10.18;;;8.10;;
9160;SDS011;4615;51.340;8.288;2024-03-17T02:56:38;9.02;;;8.13;;
9160;SDS011;4615;51.340;8.288;2024-03-17T02:59:04;10.45;;;8.00;;
9160;SDS011;4615;51.340;8.288;2024-03-17T03:01:31;8.87;;;7.90;;
9160;SDS011;4615;51.340;8.288;2024-03-17T03:03:58;9.55;;;8.50;;
9160;SDS011;4615;51.340;8.288;2024-03-17T03:06:24;10.88;;;8.50;;
9160;SDS011;4615;51.340;8.288;2024-03-17T03:08:50;9.75;;;8.80;;
9160;SDS011;4615;51.340;8.288;2024-03-17T03:11:17;10.38;;;9.07;;
9160;SDS011;4615;51.340;8.288;2024-03-17T03:13:45;10.55;;;9.00;;
9160;SDS011;4615;51.340;8.288;2024-03-17T03:16:12;9.77;;;8.65;;
9160;SDS011;4615;51.340;8.288;2024-03-17T03:18:39;11.20;;;9.70;;
9160;SDS011;4615;51.340;8.288;2024-03-17T03:21:05;10.98;;;8.90;;
9160;SDS011;4615;51.340;8.288;2024-03-17T03:23:32;9.80;;;8.30;;
9160;SDS011;4615;51.340;8.288;2024-03-17T03:25:59;10.93;;;9.27;;
9160;SDS011;4615;51.340;8.288;2024-03-17T03:28:27;10.23;;;8.80;;
9160;SDS011;4615;51.340;8.288;2024-03-17T03:30:55;11.05;;;9.10;;
9160;SDS011;4615;51.340;8.288;2024-03-17T03:33:22;10.18;;;9.02;;
9160;SDS011;4615;51.340;8.288;2024-03-17T03:35:49;10.77;;;9.32;;
9160;SDS011;4615;51.340;8.288;2024-03-17T03:38:16;10.27;;;9.10;;
9160;SDS011;4615;51.340;8.288;2024-03-17T03:40:43;10.47;;;8.80;;
9160;SDS011;4615;51.340;8.288;2024-03-17T03:43:10;10.43;;;9.33;;
9160;SDS011;4615;51.340;8.288;2024-03-17T03:45:37;10.80;;;9.45;;
9160;SDS011;4615;51.340;8.288;2024-03-17T03:48:06;10.30;;;9.00;;
9160;SDS011;4615;51.340;8.288;2024-03-17T03:50:33;11.07;;;9.15;;
9160;SDS011;4615;51.340;8.288;2024-03-17T03:53:00;10.45;;;9.27;;
9160;SDS011;4615;51.340;8.288;2024-03-17T03:55:26;9.93;;;8.93;;
9160;SDS011;4615;51.340;8.288;2024-03-17T03:57:54;9.70;;;8.48;;
9160;SDS011;4615;51.340;8.288;2024-03-17T04:00:21;9.93;;;8.93;;
9160;SDS011;4615;51.340;8.288;2024-03-17T04:02:47;9.93;;;8.55;;
9160;SDS011;4615;51.340;8.288;2024-03-17T04:05:15;9.33;;;8.37;;
9160;SDS011;4615;51.340;8.288;2024-03-17T04:07:41;11.40;;;9.38;;
9160;SDS011;4615;51.340;8.288;2024-03-17T04:10:11;10.73;;;9.20;;
9160;SDS011;4615;51.340;8.288;2024-03-17T04:12:37;11.20;;;9.52;;
9160;SDS011;4615;51.340;8.288;2024-03-17T04:15:04;9.85;;;8.85;;
9160;SDS011;4615;51.340;8.288;2024-03-17T04:17:31;10.65;;;9.43;;
9160;SDS011;4615;51.340;8.288;2024-03-17T04:19:58;10.23;;;9.13;;
9160;SDS011;4615;51.340;8.288;2024-03-17T04:22:25;10.73;;;9.50;;
9160;SDS011;4615;51.340;8.288;2024-03-17T04:24:52;10.95;;;9.85;;
9160;SDS011;4615;51.340;8.288;2024-03-17T04:27:19;11.80;;;9.90;;
9160;SDS011;4615;51.340;8.288;2024-03-17T04:29:46;12.57;;;9.98;;
9160;SDS011;4615;51.340;8.288;2024-03-17T04:32:13;10.02;;;9.02;;
9160;SDS011;4615;51.340;8.288;2024-03-17T04:34:39;10.50;;;9.45;;
9160;SDS011;4615;51.340;8.288;2024-03-17T04:37:05;10.10;;;9.10;;
9160;SDS011;4615;51.340;8.288;2024-03-17T04:39:34;10.50;;;9.27;;
9160;SDS011;4615;51.340;8.288;2024-03-17T04:42:03;10.25;;;9.15;;
9160;SDS011;4615;51.340;8.288;2024-03-17T04:44:29;10.98;;;9.80;;
9160;SDS011;4615;51.340;8.288;2024-03-17T04:46:55;12.38;;;10.90;;
9160;SDS011;4615;51.340;8.288;2024-03-17T04:49:22;11.55;;;9.23;;
9160;SDS011;4615;51.340;8.288;2024-03-17T04:51:48;10.43;;;9.43;;
9160;SDS011;4615;51.340;8.288;2024-03-17T04:54:15;10.55;;;9.20;;
9160;SDS011;4615;51.340;8.288;2024-03-17T04:56:43;9.83;;;8.83;;
9160;SDS011;4615;51.340;8.288;2024-03-17T04:59:09;11.03;;;9.57;;
9160;SDS011;4615;51.340;8.288;2024-03-17T05:01:35;10.80;;;9.70;;
9160;SDS011;4615;51.340;8.288;2024-03-17T05:04:02;11.55;;;9.77;;
9160;SDS011;4615;51.340;8.288;2024-03-17T05:06:29;10.80;;;9.60;;
9160;SDS011;4615;51.340;8.288;2024-03-17T05:08:56;11.75;;;9.80;;
9160;SDS011;4615;51.340;8.288;2024-03-17T05:11:22;11.52;;;9.82;;
9160;SDS011;4615;51.340;8.288;2024-03-17T05:13:53;10.93;;;9.57;;
9160;SDS011;4615;51.340;8.288;2024-03-17T05:16:19;11.77;;;10.07;;
9160;SDS011;4615;51.340;8.288;2024-03-17T05:18:48;10.85;;;8.75;;
9160;SDS011;4615;51.340;8.288;2024-03-17T05:21:14;11.73;;;10.52;;
9160;SDS011;4615;51.340;8.288;2024-03-17T05:23:41;10.45;;;9.38;;
9160;SDS011;4615;51.340;8.288;2024-03-17T05:26:07;11.25;;;10.13;;
9160;SDS011;4615;51.340;8.288;2024-03-17T05:28:34;12.05;;;9.82;;
9160;SDS011;4615;51.340;8.288;2024-03-17T05:31:01;10.50;;;9.35;;
9160;SDS011;4615;51.340;8.288;2024-03-17T05:33:28;10.65;;;9.50;;
9160;SDS011;4615;51.340;8.288;2024-03-17T05:35:56;10.38;;;9.48;;
9160;SDS011;4615;51.340;8.288;2024-03-17T05:38:23;10.97;;;9.70;;
9160;SDS011;4615;51.340;8.288;2024-03-17T05:40:53;11.15;;;10.05;;
9160;SDS011;4615;51.340;8.288;2024-03-17T05:43:20;10.77;;;9.68;;
9160;SDS011;4615;51.340;8.288;2024-03-17T05:45:46;11.27;;;10.07;;
9160;SDS011;4615;51.340;8.288;2024-03-17T05:48:14;11.00;;;9.90;;
9160;SDS011;4615;51.340;8.288;2024-03-17T05:50:40;10.95;;;9.85;;
9160;SDS011;4615;51.340;8.288;2024-03-17T05:53:07;10.57;;;9.52;;
9160;SDS011;4615;51.340;8.288;2024-03-17T05:55:34;12.35;;;10.00;;
9160;SDS011;4615;51.340;8.288;2024-03-17T05:58:01;11.23;;;10.13;;
9160;SDS011;4615;51.340;8.288;2024-03-17T06:00:27;11.18;;;10.07;;
9160;SDS011;4615;51.340;8.288;2024-03-17T06:02:54;12.10;;;10.07;;
9160;SDS011;4615;51.340;8.288;2024-03-17T06:05:22;10.65;;;9.57;;
9160;SDS011;4615;51.340;8.288;2024-03-17T06:07:48;11.63;;;10.00;;
9160;SDS011;4615;51.340;8.288;2024-03-17T06:10:15;11.63;;;10.10;;
9160;SDS011;4615;51.340;8.288;2024-03-17T06:12:41;11.43;;;10.23;;
9160;SDS011;4615;51.340;8.288;2024-03-17T06:15:08;11.63;;;10.43;;
9160;SDS011;4615;51.340;8.288;2024-03-17T06:17:35;11.48;;;10.27;;
9160;SDS011;4615;51.340;8.288;2024-03-17T06:20:01;13.65;;;10.90;;
9160;SDS011;4615;51.340;8.288;2024-03-17T06:22:29;11.05;;;9.95;;
9160;SDS011;4615;51.340;8.288;2024-03-17T06:24:56;11.82;;;10.35;;
9160;SDS011;4615;51.340;8.288;2024-03-17T06:27:22;12.15;;;10.88;;
9160;SDS011;4615;51.340;8.288;2024-03-17T06:29:49;12.10;;;10.80;;
9160;SDS011;4615;51.340;8.288;2024-03-17T06:32:15;13.13;;;10.77;;
9160;SDS011;4615;51.340;8.288;2024-03-17T06:34:42;11.70;;;10.50;;
9160;SDS011;4615;51.340;8.288;2024-03-17T06:37:09;11.50;;;10.30;;
9160;SDS011;4615;51.340;8.288;2024-03-17T06:39:36;11.47;;;10.30;;
9160;SDS011;4615;51.340;8.288;2024-03-17T06:42:04;12.50;;;10.80;;
9160;SDS011;4615;51.340;8.288;2024-03-17T06:44:30;11.73;;;10.53;;
9160;SDS011;4615;51.340;8.288;2024-03-17T06:46:58;12.07;;;10.80;;
9160;SDS011;4615;51.340;8.288;2024-03-17T06:49:25;12.00;;;10.73;;
9160;SDS011;4615;51.340;8.288;2024-03-17T06:51:51;11.57;;;10.23;;
9160;SDS011;4615;51.340;8.288;2024-03-17T06:54:18;11.43;;;10.27;;
9160;SDS011;4615;51.340;8.288;2024-03-17T06:56:46;11.40;;;10.20;;
9160;SDS011;4615;51.340;8.288;2024-03-17T06:59:12;12.03;;;10.83;;
9160;SDS011;4615;51.340;8.288;2024-03-17T07:01:39;11.70;;;10.50;;
9160;SDS011;4615;51.340;8.288;2024-03-17T07:04:05;11.57;;;10.50;;
9160;SDS011;4615;51.340;8.288;2024-03-17T07:06:31;12.32;;;11.00;;
9160;SDS011;4615;51.340;8.288;2024-03-17T07:09:00;13.07;;;11.70;;
9160;SDS011;4615;51.340;8.288;2024-03-17T07:11:26;12.13;;;10.93;;
9160;SDS011;4615;51.340;8.288;2024-03-17T07:13:54;12.45;;;11.07;;
9160;SDS011;4615;51.340;8.288;2024-03-17T07:16:20;12.82;;;11.52;;
9160;SDS011;4615;51.340;8.288;2024-03-17T07:18:51;12.95;;;11.65;;
9160;SDS011;4615;51.340;8.288;2024-03-17T07:21:17;12.90;;;11.65;;
9160;SDS011;4615;51.340;8.288;2024-03-17T07:23:44;13.05;;;11.75;;
9160;SDS011;4615;51.340;8.288;2024-03-17T07:26:10;12.53;;;11.20;;
9160;SDS011;4615;51.340;8.288;2024-03-17T07:28:39;13.43;;;12.05;;
9160;SDS011;4615;51.340;8.288;2024-03-17T07:31:08;12.80;;;11.60;;
9160;SDS011;4615;51.340;8.288;2024-03-17T07:33:34;13.05;;;11.75;;
9160;SDS011;4615;51.340;8.288;2024-03-17T07:36:01;13.00;;;11.70;;
9160;SDS011;4615;51.340;8.288;2024-03-17T07:38:28;13.52;;;12.23;;
9160;SDS011;4615;51.340;8.288;2024-03-17T07:40:56;12.93;;;11.60;;
9160;SDS011;4615;51.340;8.288;2024-03-17T07:43:23;13.15;;;11.70;;
9160;SDS011;4615;51.340;8.288;2024-03-17T07:46:00;13.60;;;12.15;;
9160;SDS011;4615;51.340;8.288;2024-03-17T07:48:28;14.40;;;12.93;;
9160;SDS011;4615;51.340;8.288;2024-03-17T07:50:55;13.80;;;12.40;;
9160;SDS011;4615;51.340;8.288;2024-03-17T07:53:22;13.07;;;11.77;;
9160;SDS011;4615;51.340;8.288;2024-03-17T07:55:56;12.57;;;11.27;;
9160;SDS011;4615;51.340;8.288;2024-03-17T07:58:22;12.80;;;11.50;;
9160;SDS011;4615;51.340;8.288;2024-03-17T08:00:50;12.40;;;11.07;;
9160;SDS011;4615;51.340;8.288;2024-03-17T08:03:17;13.15;;;11.38;;
9160;SDS011;4615;51.340;8.288;2024-03-17T08:05:48;13.02;;;11.73;;
9160;SDS011;4615;51.340;8.288;2024-03-17T08:08:15;13.38;;;11.98;;
9160;SDS011;4615;51.340;8.288;2024-03-17T08:10:42;12.90;;;11.68;;
9160;SDS011;4615;51.340;8.288;2024-03-17T08:13:08;12.23;;;11.03;;
9160;SDS011;4615;51.340;8.288;2024-03-17T08:15:35;12.77;;;11.48;;
9160;SDS011;4615;51.340;8.288;2024-03-17T08:18:01;12.18;;;11.00;;
9160;SDS011;4615;51.340;8.288;2024-03-17T08:20:28;9.75;;;8.73;;
9160;SDS011;4615;51.340;8.288;2024-03-17T08:22:56;10.43;;;9.40;;
9160;SDS011;4615;51.340;8.288;2024-03-17T08:25:23;11.87;;;10.77;;
9160;SDS011;4615;51.340;8.288;2024-03-17T08:27:49;11.93;;;10.65;;
9160;SDS011;4615;51.340;8.288;2024-03-17T08:30:16;10.60;;;9.57;;
9160;SDS011;4615;51.340;8.288;2024-03-17T08:32:42;10.10;;;9.10;;
9160;SDS011;4615;51.340;8.288;2024-03-17T08:35:10;10.75;;;9.75;;
9160;SDS011;4615;51.340;8.288;2024-03-17T08:37:36;10.40;;;9.30;;
9160;SDS011;4615;51.340;8.288;2024-03-17T08:40:05;9.90;;;8.90;;
9160;SDS011;4615;51.340;8.288;2024-03-17T08:42:32;9.98;;;8.98;;
9160;SDS011;4615;51.340;8.288;2024-03-17T08:44:58;9.30;;;8.40;;
9160;SDS011;4615;51.340;8.288;2024-03-17T08:47:24;8.95;;;8.15;;
9160;SDS011;4615;51.340;8.288;2024-03-17T08:49:51;8.38;;;7.57;;
9160;SDS011;4615;51.340;8.288;2024-03-17T08:52:17;8.70;;;7.77;;
9160;SDS011;4615;51.340;8.288;2024-03-17T08:54:45;7.85;;;7.10;;
9160;SDS011;4615;51.340;8.288;2024-03-17T08:57:13;8.10;;;7.30;;
9160;SDS011;4615;51.340;8.288;2024-03-17T08:59:39;7.53;;;6.40;;
9160;SDS011;4615;51.340;8.288;2024-03-17T09:02:06;12.30;;;10.55;;
9160;SDS011;4615;51.340;8.288;2024-03-17T09:04:36;8.98;;;8.07;;
9160;SDS011;4615;51.340;8.288;2024-03-17T09:07:02;9.52;;;7.63;;
9160;SDS011;4615;51.340;8.288;2024-03-17T09:09:29;7.05;;;6.00;;
9160;SDS011;4615;51.340;8.288;2024-03-17T09:11:56;6.53;;;5.82;;
9160;SDS011;4615;51.340;8.288;2024-03-17T09:14:24;7.05;;;6.30;;
9160;SDS011;4615;51.340;8.288;2024-03-17T09:16:50;5.53;;;4.90;;
9160;SDS011;4615;51.340;8.288;2024-03-17T09:19:17;5.20;;;4.68;;
9160;SDS011;4615;51.340;8.288;2024-03-17T09:21:43;5.67;;;4.57;;
9160;SDS011;4615;51.340;8.288;2024-03-17T09:24:10;5.43;;;4.80;;
9160;SDS011;4615;51.340;8.288;2024-03-17T09:26:36;6.57;;;4.70;;
9160;SDS011;4615;51.340;8.288;2024-03-17T09:29:04;4.75;;;4.35;;
9160;SDS011;4615;51.340;8.288;2024-03-17T09:31:32;5.28;;;4.43;;
9160;SDS011;4615;51.340;8.288;2024-03-17T09:34:00;5.38;;;4.35;;
9160;SDS011;4615;51.340;8.288;2024-03-17T09:36:26;5.35;;;4.60;;
9160;SDS011;4615;51.340;8.288;2024-03-17T09:38:53;5.90;;;4.17;;
9160;SDS011;4615;51.340;8.288;2024-03-17T09:41:19;4.38;;;3.97;;
9160;SDS011;4615;51.340;8.288;2024-03-17T09:43:47;5.13;;;4.53;;
9160;SDS011;4615;51.340;8.288;2024-03-17T09:46:13;6.10;;;4.90;;
9160;SDS011;4615;51.340;8.288;2024-03-17T09:48:42;5.40;;;4.75;;
9160;SDS011;4615;51.340;8.288;2024-03-17T09:51:13;6.55;;;5.03;;
9160;SDS011;4615;51.340;8.288;2024-03-17T09:53:42;6.05;;;5.55;;
9160;SDS011;4615;51.340;8.288;2024-03-17T09:56:09;5.87;;;5.27;;
9160;SDS011;4615;51.340;8.288;2024-03-17T09:58:36;5.80;;;5.20;;
9160;SDS011;4615;51.340;8.288;2024-03-17T10:01:02;5.60;;;5.07;;
9160;SDS011;4615;51.340;8.288;2024-03-17T10:03:40;6.13;;;5.00;;
9160;SDS011;4615;51.340;8.288;2024-03-17T10:06:09;5.80;;;4.77;;
9160;SDS011;4615;51.340;8.288;2024-03-17T10:08:40;5.10;;;4.60;;
9160;SDS011;4615;51.340;8.288;2024-03-17T10:11:06;5.57;;;4.90;;
9160;SDS011;4615;51.340;8.288;2024-03-17T10:13:33;5.65;;;4.63;;
9160;SDS011;4615;51.340;8.288;2024-03-17T10:16:00;5.43;;;4.90;;
9160;SDS011;4615;51.340;8.288;2024-03-17T10:18:26;6.20;;;4.97;;
9160;SDS011;4615;51.340;8.288;2024-03-17T10:20:52;4.80;;;4.30;;
9160;SDS011;4615;51.340;8.288;2024-03-17T10:23:22;5.50;;;5.00;;
9160;SDS011;4615;51.340;8.288;2024-03-17T10:25:49;6.22;;;4.78;;
9160;SDS011;4615;51.340;8.288;2024-03-17T10:28:16;6.00;;;4.97;;
9160;SDS011;4615;51.340;8.288;2024-03-17T10:30:56;5.82;;;5.07;;
9160;SDS011;4615;51.340;8.288;2024-03-17T10:33:23;5.33;;;4.73;;
9160;SDS011;4615;51.340;8.288;2024-03-17T10:35:50;5.22;;;4.72;;
9160;SDS011;4615;51.340;8.288;2024-03-17T10:38:17;4.93;;;4.43;;
9160;SDS011;4615;51.340;8.288;2024-03-17T10:40:49;5.97;;;4.90;;
9160;SDS011;4615;51.340;8.288;2024-03-17T10:43:16;5.93;;;5.00;;
9160;SDS011;4615;51.340;8.288;2024-03-17T10:45:45;5.18;;;4.68;;
9160;SDS011;4615;51.340;8.288;2024-03-17T10:48:11;5.15;;;4.65;;
9160;SDS011;4615;51.340;8.288;2024-03-17T10:50:42;5.05;;;4.53;;
9160;SDS011;4615;51.340;8.288;2024-03-17T10:53:09;5.85;;;5.25;;
9160;SDS011;4615;51.340;8.288;2024-03-17T10:55:40;6.07;;;5.33;;
9160;SDS011;4615;51.340;8.288;2024-03-17T10:58:12;5.60;;;4.95;;
9160;SDS011;4615;51.340;8.288;2024-03-17T11:00:42;5.70;;;4.78;;
9160;SDS011;4615;51.340;8.288;2024-03-17T11:03:11;6.03;;;5.20;;
9160;SDS011;4615;51.340;8.288;2024-03-17T11:05:40;6.03;;;4.73;;
9160;SDS011;4615;51.340;8.288;2024-03-17T11:08:07;6.05;;;5.00;;
9160;SDS011;4615;51.340;8.288;2024-03-17T11:10:41;6.28;;;5.65;;
9160;SDS011;4615;51.340;8.288;2024-03-17T11:13:23;5.80;;;5.20;;
9160;SDS011;4615;51.340;8.288;2024-03-17T11:15:50;5.78;;;5.03;;
9160;SDS011;4615;51.340;8.288;2024-03-17T11:18:28;6.25;;;5.55;;
9160;SDS011;4615;51.340;8.288;2024-03-17T11:20:56;6.20;;;5.60;;
9160;SDS011;4615;51.340;8.288;2024-03-17T11:23:26;5.80;;;5.25;;
9160;SDS011;4615;51.340;8.288;2024-03-17T11:25:52;7.63;;;5.82;;
9160;SDS011;4615;51.340;8.288;2024-03-17T11:31:01;5.55;;;4.90;;
9160;SDS011;4615;51.340;8.288;2024-03-17T11:33:46;5.57;;;4.90;;
9160;SDS011;4615;51.340;8.288;2024-03-17T11:38:59;6.05;;;4.97;;
9160;SDS011;4615;51.340;8.288;2024-03-17T11:41:38;5.35;;;4.85;;
9160;SDS011;4615;51.340;8.288;2024-03-17T11:44:15;5.93;;;4.90;;
9160;SDS011;4615;51.340;8.288;2024-03-17T11:46:42;5.35;;;4.78;;
9160;SDS011;4615;51.340;8.288;2024-03-17T11:49:16;5.10;;;4.60;;
9160;SDS011;4615;51.340;8.288;2024-03-17T11:51:42;5.35;;;4.85;;
9160;SDS011;4615;51.340;8.288;2024-03-17T11:54:08;6.15;;;5.00;;
9160;SDS011;4615;51.340;8.288;2024-03-17T11:56:38;5.47;;;4.97;;
9160;SDS011;4615;51.340;8.288;2024-03-17T11:59:04;5.15;;;4.65;;
9160;SDS011;4615;51.340;8.288;2024-03-17T12:01:30;4.83;;;4.33;;
9160;SDS011;4615;51.340;8.288;2024-03-17T12:04:00;5.00;;;4.38;;
9160;SDS011;4615;51.340;8.288;2024-03-17T12:06:30;4.78;;;4.38;;
9160;SDS011;4615;51.340;8.288;2024-03-17T12:09:07;6.43;;;4.53;;
9160;SDS011;4615;51.340;8.288;2024-03-17T12:11:33;5.65;;;4.50;;
9160;SDS011;4615;51.340;8.288;2024-03-17T12:13:59;5.50;;;4.68;;
9160;SDS011;4615;51.340;8.288;2024-03-17T12:16:26;6.13;;;4.55;;
9160;SDS011;4615;51.340;8.288;2024-03-17T12:18:52;4.80;;;4.30;;
9160;SDS011;4615;51.340;8.288;2024-03-17T12:21:21;4.47;;;4.07;;
9160;SDS011;4615;51.340;8.288;2024-03-17T12:23:48;5.00;;;4.50;;
9160;SDS011;4615;51.340;8.288;2024-03-17T12:26:15;4.60;;;4.10;;
9160;SDS011;4615;51.340;8.288;2024-03-17T12:28:45;4.35;;;4.05;;
9160;SDS011;4615;51.340;8.288;2024-03-17T12:31:10;5.38;;;4.15;;
9160;SDS011;4615;51.340;8.288;2024-03-17T12:33:36;4.50;;;4.10;;
9160;SDS011;4615;51.340;8.288;2024-03-17T12:36:09;5.78;;;4.70;;
9160;SDS011;4615;51.340;8.288;2024-03-17T12:38:39;5.83;;;4.17;;
9160;SDS011;4615;51.340;8.288;2024-03-17T12:41:15;5.18;;;4.30;;
9160;SDS011;4615;51.340;8.288;2024-03-17T12:43:47;4.50;;;4.03;;
9160;SDS011;4615;51.340;8.288;2024-03-17T12:46:13;5.22;;;4.20;;
9160;SDS011;4615;51.340;8.288;2024-03-17T12:48:39;5.20;;;4.30;;
9160;SDS011;4615;51.340;8.288;2024-03-17T12:51:07;5.32;;;4.18;;
9160;SDS011;4615;51.340;8.288;2024-03-17T12:53:40;4.57;;;4.05;;
9160;SDS011;4615;51.340;8.288;2024-03-17T12:56:06;4.72;;;3.85;;
9160;SDS011;4615;51.340;8.288;2024-03-17T12:58:50;4.32;;;3.70;;
9160;SDS011;4615;51.340;8.288;2024-03-17T13:01:33;5.45;;;3.97;;
9160;SDS011;4615;51.340;8.288;2024-03-17T13:04:04;4.72;;;3.95;;
9160;SDS011;4615;51.340;8.288;2024-03-17T13:06:32;4.55;;;3.90;;
9160;SDS011;4615;51.340;8.288;2024-03-17T13:09:00;4.43;;;4.03;;
9160;SDS011;4615;51.340;8.288;2024-03-17T13:11:26;5.68;;;4.68;;
9160;SDS011;4615;51.340;8.288;2024-03-17T13:13:53;4.28;;;3.83;;
9160;SDS011;4615;51.340;8.288;2024-03-17T13:16:20;4.90;;;3.70;;
9160;SDS011;4615;51.340;8.288;2024-03-17T13:18:46;4.78;;;3.88;;
9160;SDS011;4615;51.340;8.288;2024-03-17T13:21:13;5.73;;;5.13;;
9160;SDS011;4615;51.340;8.288;2024-03-17T13:23:39;5.55;;;3.75;;
9160;SDS011;4615;51.340;8.288;2024-03-17T13:26:07;4.40;;;4.00;;
9160;SDS011;4615;51.340;8.288;2024-03-17T13:28:34;5.85;;;4.20;;
9160;SDS011;4615;51.340;8.288;2024-03-17T13:31:00;5.20;;;3.60;;
9160;SDS011;4615;51.340;8.288;2024-03-17T13:33:28;4.43;;;3.70;;
9160;SDS011;4615;51.340;8.288;2024-03-17T13:35:55;4.22;;;3.83;;
9160;SDS011;4615;51.340;8.288;2024-03-17T13:38:22;4.60;;;3.80;;
9160;SDS011;4615;51.340;8.288;2024-03-17T13:40:48;4.80;;;3.97;;
9160;SDS011;4615;51.340;8.288;2024-03-17T13:43:16;4.72;;;3.83;;
9160;SDS011;4615;51.340;8.288;2024-03-17T13:45:42;4.30;;;3.70;;
9160;SDS011;4615;51.340;8.288;2024-03-17T13:48:09;4.13;;;3.72;;
9160;SDS011;4615;51.340;8.288;2024-03-17T13:50:36;4.25;;;3.67;;
9160;SDS011;4615;51.340;8.288;2024-03-17T13:53:03;5.28;;;4.00;;
9160;SDS011;4615;51.340;8.288;2024-03-17T13:55:29;4.50;;;4.00;;
9160;SDS011;4615;51.340;8.288;2024-03-17T13:57:56;4.43;;;4.03;;
9160;SDS011;4615;51.340;8.288;2024-03-17T14:00:25;4.13;;;3.47;;
9160;SDS011;4615;51.340;8.288;2024-03-17T14:02:53;4.40;;;4.00;;
9160;SDS011;4615;51.340;8.288;2024-03-17T14:05:20;4.38;;;3.80;;
9160;SDS011;4615;51.340;8.288;2024-03-17T14:07:47;4.57;;;3.53;;
9160;SDS011;4615;51.340;8.288;2024-03-17T14:10:15;3.42;;;3.13;;
9160;SDS011;4615;51.340;8.288;2024-03-17T14:12:41;4.22;;;3.38;;
9160;SDS011;4615;51.340;8.288;2024-03-17T14:15:08;5.22;;;3.42;;
9160;SDS011;4615;51.340;8.288;2024-03-17T14:17:37;4.13;;;3.40;;
9160;SDS011;4615;51.340;8.288;2024-03-17T14:20:04;4.25;;;3.70;;
9160;SDS011;4615;51.340;8.288;2024-03-17T14:22:31;4.43;;;3.70;;
9160;SDS011;4615;51.340;8.288;2024-03-17T14:24:57;3.60;;;3.30;;
9160;SDS011;4615;51.340;8.288;2024-03-17T14:27:24;5.40;;;3.40;;
9160;SDS011;4615;51.340;8.288;2024-03-17T14:29:52;4.38;;;3.30;;
9160;SDS011;4615;51.340;8.288;2024-03-17T14:32:18;3.43;;;3.03;;
9160;SDS011;4615;51.340;8.288;2024-03-17T14:34:47;4.20;;;3.28;;
9160;SDS011;4615;51.340;8.288;2024-03-17T14:37:14;4.38;;;3.03;;
9160;SDS011;4615;51.340;8.288;2024-03-17T14:39:40;4.05;;;3.30;;
9160;SDS011;4615;51.340;8.288;2024-03-17T14:42:07;4.35;;;3.30;;
9160;SDS011;4615;51.340;8.288;2024-03-17T14:44:34;3.17;;;2.90;;
9160;SDS011;4615;51.340;8.288;2024-03-17T14:47:00;3.40;;;3.05;;
9160;SDS011;4615;51.340;8.288;2024-03-17T14:49:28;4.20;;;3.20;;
9160;SDS011;4615;51.340;8.288;2024-03-17T14:51:56;3.83;;;3.25;;
9160;SDS011;4615;51.340;8.288;2024-03-17T14:54:22;4.87;;;3.20;;
9160;SDS011;4615;51.340;8.288;2024-03-17T14:56:49;3.42;;;3.13;;
9160;SDS011;4615;51.340;8.288;2024-03-17T14:59:16;3.25;;;2.78;;
9160;SDS011;4615;51.340;8.288;2024-03-17T15:01:44;4.25;;;3.10;;
9160;SDS011;4615;51.340;8.288;2024-03-17T15:04:11;3.33;;;2.80;;
9160;SDS011;4615;51.340;8.288;2024-03-17T15:06:38;3.35;;;2.90;;
9160;SDS011;4615;51.340;8.288;2024-03-17T15:09:06;3.70;;;2.80;;
9160;SDS011;4615;51.340;8.288;2024-03-17T15:11:33;3.58;;;3.05;;
9160;SDS011;4615;51.340;8.288;2024-03-17T15:14:00;3.88;;;2.67;;